Time;durP1;ratioP1;P1;durP2;ratioP2;P2;SDS_P1;SDS_P2;PMS_P1;PMS_P2;Temp;Humidity;BMP_temperature;BMP_pressure;BME280_temperature;BME280_humidity;BME280_pressure;Samples;Min_cycle;Max_cycle;Signal;HPM_P1;HPM_P2
2023/09/19 00:00:50;;;;;;;20.45;12.05;;;21.90;93.20;;;;;;4848735;29;20501;-82
2023/09/19 00:03:17;;;;;;;16.80;11.35;;;21.90;93.50;;;;;;4872278;29;20056;-81
2023/09/19 00:05:47;;;;;;;20.05;11.88;;;21.70;93.60;;;;;;4871493;29;20056;-78
2023/09/19 00:08:14;;;;;;;18.30;11.77;;;21.70;94.00;;;;;;4855361;29;20065;-79
2023/09/19 00:10:42;;;;;;;20.33;11.57;;;21.60;94.20;;;;;;4862158;29;20037;-79
2023/09/19 00:13:13;;;;;;;19.77;11.93;;;21.60;94.40;;;;;;4865733;29;20048;-80
2023/09/19 00:15:48;;;;;;;19.73;11.73;;;21.50;94.50;;;;;;4855141;29;20120;-79
2023/09/19 00:18:21;;;;;;;26.50;11.98;;;21.50;94.40;;;;;;4868001;29;20655;-78
2023/09/19 00:20:51;;;;;;;15.13;11.30;;;21.50;94.50;;;;;;4864657;29;20041;-77
2023/09/19 00:23:19;;;;;;;20.60;10.98;;;21.40;94.70;;;;;;4853525;29;20040;-79
2023/09/19 00:25:48;;;;;;;16.13;10.80;;;21.40;95.00;;;;;;4855459;29;20398;-80
2023/09/19 00:28:16;;;;;;;15.68;10.52;;;21.50;95.10;;;;;;4868031;29;20045;-78
2023/09/19 00:30:49;;;;;;;16.23;10.73;;;21.50;95.10;;;;;;4870235;29;20053;-79
2023/09/19 00:33:19;;;;;;;15.93;12.05;;;21.30;95.10;;;;;;4868349;29;20479;-80
2023/09/19 00:35:53;;;;;;;16.90;10.07;;;21.30;95.40;;;;;;4854677;29;20045;-80
2023/09/19 00:38:24;;;;;;;13.95;10.00;;;21.20;95.70;;;;;;4857403;29;20034;-78
2023/09/19 00:40:52;;;;;;;15.95;10.27;;;21.30;95.60;;;;;;4852096;29;20394;-79
2023/09/19 00:43:20;;;;;;;16.58;9.95;;;21.40;95.40;;;;;;4853428;29;20363;-78
2023/09/19 00:45:51;;;;;;;14.70;9.70;;;21.30;95.90;;;;;;4872193;29;20125;-78
2023/09/19 00:48:20;;;;;;;17.05;10.18;;;20.60;96.90;;;;;;4871503;29;20041;-78
2023/09/19 00:50:49;;;;;;;17.38;10.77;;;20.90;96.80;;;;;;4856531;29;20040;-78
2023/09/19 00:53:20;;;;;;;17.27;10.88;;;21.20;96.70;;;;;;4853859;29;20413;-79
2023/09/19 00:55:49;;;;;;;20.52;11.10;;;21.40;96.50;;;;;;4850485;29;20070;-78
2023/09/19 00:58:20;;;;;;;18.10;11.07;;;21.40;96.40;;;;;;4871243;29;20443;-78
2023/09/19 01:00:51;;;;;;;17.17;11.13;;;21.30;96.60;;;;;;4851776;29;20075;-79
2023/09/19 01:03:18;;;;;;;;;;;21.30;96.90;;;;;;4869434;29;20575;-77
2023/09/19 01:05:46;;;;;;;16.50;10.10;;;21.40;96.90;;;;;;4864901;29;19928;-79
2023/09/19 01:08:13;;;;;;;16.35;10.55;;;21.40;96.90;;;;;;4854954;29;20061;-79
2023/09/19 01:10:51;;;;;;;18.13;11.43;;;21.40;96.80;;;;;;4856764;29;20041;-79
2023/09/19 01:13:27;;;;;;;18.63;11.32;;;21.20;97.40;;;;;;4867668;29;20474;-78
2023/09/19 01:16:12;;;;;;;16.35;10.98;;;21.20;97.50;;;;;;4853127;29;20422;-78
2023/09/19 01:19:02;;;;;;;17.83;10.55;;;21.20;97.50;;;;;;4856394;29;20392;-79
2023/09/19 01:21:54;;;;;;;17.17;11.55;;;21.20;97.60;;;;;;4853204;29;20475;-81
2023/09/19 01:24:52;;;;;;;20.83;10.90;;;21.20;97.70;;;;;;4848038;29;20042;-78
2023/09/19 01:27:43;;;;;;;18.30;11.98;;;21.20;97.80;;;;;;4871464;29;20427;-80
2023/09/19 01:30:12;;;;;;;;;;;21.10;98.00;;;;;;4854540;29;20038;-77
2023/09/19 01:32:41;;;;;;;16.00;9.70;;;20.90;98.20;;;;;;4852044;29;19924;-80
2023/09/19 01:35:12;;;;;;;16.55;10.25;;;20.90;98.50;;;;;;4855309;29;20276;-79
2023/09/19 01:37:43;;;;;;;14.75;10.02;;;21.00;98.40;;;;;;4868277;29;20129;-82
2023/09/19 01:40:19;;;;;;;16.05;10.65;;;21.10;98.10;;;;;;4861553;29;20042;-83
2023/09/19 01:42:59;;;;;;;14.75;9.73;;;20.60;98.90;;;;;;4863712;29;20048;-81
2023/09/19 01:45:50;;;;;;;19.02;10.43;;;20.50;99.20;;;;;;4853767;29;20597;-80
2023/09/19 01:48:42;;;;;;;13.25;9.73;;;20.50;99.20;;;;;;4851445;29;20034;-79
2023/09/19 01:51:11;;;;;;;14.82;9.70;;;20.70;99.10;;;;;;4851994;29;20431;-81
2023/09/19 01:54:02;;;;;;;15.55;10.02;;;21.00;98.70;;;;;;4871475;29;20121;-79
2023/09/19 01:56:45;;;;;;;16.77;10.00;;;21.00;98.80;;;;;;4852985;29;20045;-79
2023/09/19 01:59:16;;;;;;;13.77;10.25;;;21.00;99.00;;;;;;4869879;29;20045;-77
2023/09/19 02:01:46;;;;;;;16.08;9.98;;;20.90;99.10;;;;;;4865874;29;20041;-79
2023/09/19 02:04:13;;;;;;;15.80;9.40;;;20.90;99.00;;;;;;4852920;29;20044;-79
2023/09/19 02:06:42;;;;;;;16.65;10.30;;;20.90;99.00;;;;;;4856009;29;20056;-79
2023/09/19 02:09:09;;;;;;;14.82;9.75;;;20.90;99.10;;;;;;4871246;29;20037;-77
2023/09/19 02:11:36;;;;;;;15.80;10.25;;;20.80;99.30;;;;;;4856227;29;20482;-77
2023/09/19 02:14:08;;;;;;;12.63;9.63;;;20.90;99.60;;;;;;4856025;29;20384;-77
2023/09/19 02:16:35;;;;;;;17.02;10.27;;;21.00;99.50;;;;;;4868938;29;20038;-79
2023/09/19 02:19:05;;;;;;;18.02;9.90;;;21.10;99.30;;;;;;4873553;29;20490;-78
2023/09/19 02:21:33;;;;;;;16.48;9.93;;;20.90;99.30;;;;;;4856951;29;20098;-78
2023/09/19 02:24:00;;;;;;;16.70;10.55;;;20.80;99.50;;;;;;4874801;29;20397;-78
2023/09/19 02:26:27;;;;;;;19.50;10.93;;;20.80;99.80;;;;;;4873824;29;20049;-78
2023/09/19 02:28:55;;;;;;;16.38;10.95;;;20.70;99.70;;;;;;4872417;29;20505;-79
2023/09/19 02:31:22;;;;;;;13.43;10.13;;;20.80;99.80;;;;;;4869823;29;20435;-78
2023/09/19 02:33:50;;;;;;;18.75;9.93;;;20.90;99.80;;;;;;4866287;29;20042;-80
2023/09/19 02:36:17;;;;;;;13.65;9.60;;;20.80;99.90;;;;;;4857595;29;20378;-77
2023/09/19 02:38:44;;;;;;;15.07;9.95;;;20.70;99.90;;;;;;4857420;29;20037;-79
2023/09/19 02:41:11;;;;;;;17.90;10.73;;;20.50;99.90;;;;;;4871487;29;20048;-78
2023/09/19 02:43:39;;;;;;;14.02;10.38;;;20.50;99.90;;;;;;4858564;29;20065;-81
2023/09/19 02:46:06;;;;;;;19.20;10.77;;;20.60;99.90;;;;;;4856001;29;20038;-78
2023/09/19 02:48:35;;;;;;;16.02;10.50;;;20.40;99.90;;;;;;4856162;29;20095;-80
2023/09/19 02:51:03;;;;;;;15.32;10.43;;;20.30;99.90;;;;;;4854282;29;20072;-79
2023/09/19 02:53:33;;;;;;;17.08;10.30;;;20.40;99.90;;;;;;4854172;29;20061;-78
2023/09/19 02:56:01;;;;;;;16.13;10.77;;;20.30;99.90;;;;;;4872634;29;20490;-77
2023/09/19 02:58:30;;;;;;;23.00;9.88;;;20.40;99.90;;;;;;4870116;29;20048;-78
2023/09/19 03:00:57;;;;;;;16.45;10.65;;;20.50;99.90;;;;;;4855421;29;20490;-78
2023/09/19 03:03:24;;;;;;;16.73;10.07;;;20.50;99.90;;;;;;4869418;29;20060;-78
2023/09/19 03:05:53;;;;;;;13.45;10.13;;;20.50;99.90;;;;;;4867173;29;20108;-78
2023/09/19 03:08:21;;;;;;;17.67;9.57;;;20.40;99.90;;;;;;4872633;29;20042;-78
2023/09/19 03:10:49;;;;;;;17.77;10.23;;;20.40;99.90;;;;;;4873709;29;20690;-77
2023/09/19 03:13:16;;;;;;;17.35;10.00;;;20.30;99.90;;;;;;4855631;29;20034;-79
2023/09/19 03:15:46;;;;;;;13.88;8.98;;;20.20;99.90;;;;;;4873748;29;20044;-77
2023/09/19 03:18:13;;;;;;;15.83;9.53;;;20.30;99.90;;;;;;4858406;29;20845;-79
2023/09/19 03:20:41;;;;;;;17.58;11.82;;;20.40;99.90;;;;;;4857962;29;20284;-79
2023/09/19 03:23:08;;;;;;;15.50;10.70;;;20.40;99.90;;;;;;4852729;29;20132;-79
2023/09/19 03:25:35;;;;;;;16.92;10.35;;;20.40;99.90;;;;;;4855430;29;20073;-79
2023/09/19 03:28:07;;;;;;;19.73;10.25;;;20.40;99.90;;;;;;4872793;29;20045;-80
2023/09/19 03:30:34;;;;;;;19.88;11.02;;;20.30;99.90;;;;;;4853883;29;20503;-78
2023/09/19 03:33:01;;;;;;;15.02;10.75;;;20.40;99.90;;;;;;4857364;29;20033;-80
2023/09/19 03:35:29;;;;;;;15.70;10.32;;;20.40;99.90;;;;;;4856734;29;20061;-80
2023/09/19 03:37:56;;;;;;;14.70;10.80;;;20.30;99.90;;;;;;4857247;29;20085;-82
2023/09/19 03:40:25;;;;;;;18.50;10.60;;;20.50;99.90;;;;;;4855100;29;20037;-83
2023/09/19 03:42:52;;;;;;;13.73;10.02;;;20.40;99.90;;;;;;4855121;29;20088;-81
2023/09/19 03:45:19;;;;;;;18.88;10.52;;;20.30;99.90;;;;;;4855565;29;20037;-81
2023/09/19 03:47:47;;;;;;;17.83;10.30;;;20.30;99.90;;;;;;4853160;29;20382;-83
2023/09/19 03:50:17;;;;;;;17.77;9.38;;;20.30;99.90;;;;;;4865598;29;20097;-80
2023/09/19 03:52:45;;;;;;;19.30;9.73;;;20.30;99.90;;;;;;4870700;29;20038;-81
2023/09/19 03:55:12;;;;;;;24.52;9.65;;;20.10;99.90;;;;;;4856448;29;20040;-82
2023/09/19 03:57:39;;;;;;;18.45;10.63;;;20.00;99.90;;;;;;4851042;29;20515;-80
2023/09/19 04:00:11;;;;;;;13.98;10.13;;;20.00;99.90;;;;;;4856842;29;20120;-82
2023/09/19 04:02:40;;;;;;;18.83;10.60;;;20.20;99.90;;;;;;4852902;29;20068;-83
2023/09/19 04:05:09;;;;;;;16.00;10.32;;;20.40;99.90;;;;;;4871969;29;20041;-80
2023/09/19 04:07:36;;;;;;;16.60;10.48;;;20.40;99.90;;;;;;4854689;29;20136;-81
2023/09/19 04:10:04;;;;;;;15.40;10.25;;;20.30;99.90;;;;;;4854243;29;20128;-78
2023/09/19 04:12:32;;;;;;;14.63;10.27;;;20.10;99.90;;;;;;4870919;29;20430;-79
2023/09/19 04:14:59;;;;;;;15.52;10.70;;;19.90;99.90;;;;;;4853172;29;20467;-76
2023/09/19 04:17:26;;;;;;;14.60;10.45;;;20.00;99.90;;;;;;4853602;29;20435;-78
2023/09/19 04:19:54;;;;;;;16.00;10.43;;;20.20;99.90;;;;;;4853533;29;20042;-78
2023/09/19 04:22:21;;;;;;;15.45;10.35;;;20.40;99.90;;;;;;4857022;29;20030;-79
2023/09/19 04:24:48;;;;;;;15.75;10.52;;;20.40;99.90;;;;;;4871222;29;20402;-78
2023/09/19 04:27:15;;;;;;;14.13;10.40;;;20.40;99.90;;;;;;4866479;29;20505;-76
2023/09/19 04:29:44;;;;;;;17.08;10.20;;;20.50;99.90;;;;;;4871564;29;20033;-79
2023/09/19 04:32:13;;;;;;;16.50;10.73;;;20.40;99.90;;;;;;4857494;29;20033;-80
2023/09/19 04:34:40;;;;;;;21.00;10.52;;;20.40;99.90;;;;;;4871588;29;20057;-79
2023/09/19 04:37:07;;;;;;;17.20;10.45;;;20.20;99.90;;;;;;4856156;29;20037;-79
2023/09/19 04:39:35;;;;;;;16.85;9.77;;;20.20;99.90;;;;;;4869322;29;20394;-77
2023/09/19 04:42:03;;;;;;;15.82;10.00;;;20.20;99.90;;;;;;4870074;29;20044;-78
2023/09/19 04:44:30;;;;;;;16.05;9.75;;;20.30;99.90;;;;;;4855071;29;20417;-79
2023/09/19 04:46:59;;;;;;;13.43;10.10;;;20.10;99.90;;;;;;4870623;29;20045;-78
2023/09/19 04:49:27;;;;;;;15.40;10.23;;;20.30;99.90;;;;;;4855171;29;20049;-77
2023/09/19 04:51:55;;;;;;;18.15;10.00;;;20.00;99.90;;;;;;4859146;29;20046;-78
2023/09/19 04:54:23;;;;;;;12.80;9.35;;;20.10;99.90;;;;;;4870812;29;20115;-76
2023/09/19 04:56:50;;;;;;;71.13;41.35;;;20.20;99.90;;;;;;4878111;29;20048;-79
2023/09/19 04:59:18;;;;;;;45.05;29.60;;;20.30;99.90;;;;;;4858678;29;20045;-80
2023/09/19 05:01:46;;;;;;;103.15;74.55;;;20.20;99.90;;;;;;4853795;29;20052;-79
2023/09/19 05:04:14;;;;;;;73.57;50.22;;;20.20;99.90;;;;;;4859423;29;20040;-80
2023/09/19 05:06:41;;;;;;;137.32;90.60;;;20.30;99.90;;;;;;4856886;29;20049;-82
2023/09/19 05:09:13;;;;;;;99.07;66.15;;;20.40;99.90;;;;;;4856105;29;21054;-77
2023/09/19 05:11:40;;;;;;;82.03;54.20;;;20.50;99.90;;;;;;4856303;29;20132;-78
2023/09/19 05:14:07;;;;;;;81.40;48.60;;;20.30;99.90;;;;;;4862309;29;20098;-76
2023/09/19 05:16:35;;;;;;;73.93;42.40;;;20.20;99.90;;;;;;4849991;29;20434;-80
2023/09/19 05:19:03;;;;;;;34.70;21.02;;;20.40;99.90;;;;;;4857101;29;20044;-81
2023/09/19 05:21:31;;;;;;;29.20;17.80;;;20.40;99.90;;;;;;4854429;29;20042;-79
2023/09/19 05:23:58;;;;;;;29.42;15.45;;;20.50;99.90;;;;;;4856152;29;20062;-79
2023/09/19 05:26:25;;;;;;;27.88;15.68;;;20.30;99.90;;;;;;4857064;29;20038;-79
2023/09/19 05:28:52;;;;;;;23.05;14.48;;;20.40;99.90;;;;;;4859331;29;20130;-80
2023/09/19 05:31:20;;;;;;;22.80;13.93;;;20.30;99.90;;;;;;4868660;29;20062;-78
2023/09/19 05:33:47;;;;;;;26.38;13.77;;;20.30;99.90;;;;;;4855571;29;20065;-79
2023/09/19 05:36:16;;;;;;;33.03;15.18;;;20.40;99.90;;;;;;4856060;29;20033;-79
2023/09/19 05:38:44;;;;;;;33.67;14.20;;;20.60;99.90;;;;;;4873121;29;20052;-80
2023/09/19 05:41:13;;;;;;;66.20;42.05;;;20.70;99.90;;;;;;4855814;29;20145;-80
2023/09/19 05:43:41;;;;;;;70.45;42.78;;;20.80;99.90;;;;;;4867982;29;20142;-81
2023/09/19 05:46:09;;;;;;;28.08;18.77;;;20.70;99.90;;;;;;4859547;29;20056;-80
2023/09/19 05:48:39;;;;;;;27.25;13.35;;;20.70;99.90;;;;;;4861861;29;20390;-85
2023/09/19 05:51:07;;;;;;;;;;;20.70;99.90;;;;;;4861492;29;20048;-81
2023/09/19 05:53:34;;;;;;;23.23;14.25;;;20.90;99.90;;;;;;4873326;29;19927;-82
2023/09/19 05:56:01;;;;;;;23.42;13.88;;;20.90;99.90;;;;;;4863916;29;20378;-81
2023/09/19 05:58:29;;;;;;;18.83;12.95;;;21.00;99.90;;;;;;4873708;29;20038;-80
2023/09/19 06:00:57;;;;;;;20.30;11.32;;;20.80;99.90;;;;;;4876092;29;20102;-83
2023/09/19 06:03:24;;;;;;;18.90;10.63;;;20.80;99.90;;;;;;4858237;29;20078;-85
2023/09/19 06:05:52;;;;;;;15.68;10.77;;;20.70;99.90;;;;;;4875082;29;20080;-88
2023/09/19 06:08:20;;;;;;;15.18;10.00;;;20.70;99.90;;;;;;4871465;29;20041;-85
2023/09/19 06:10:48;;;;;;;18.65;10.07;;;20.40;99.90;;;;;;4872844;29;20057;-84
2023/09/19 06:13:16;;;;;;;20.73;10.30;;;20.40;99.90;;;;;;4868280;29;20120;-86
2023/09/19 06:15:46;;;;;;;14.60;10.00;;;20.40;99.90;;;;;;4874683;29;20034;-84
2023/09/19 06:18:19;;;;;;;15.17;9.53;;;20.40;99.90;;;;;;4855459;29;20124;-85
2023/09/19 06:20:48;;;;;;;15.48;10.35;;;20.20;99.90;;;;;;4873523;29;20238;-82
2023/09/19 06:23:15;;;;;;;16.50;8.93;;;20.30;99.90;;;;;;4870541;29;20052;-86
2023/09/19 06:25:43;;;;;;;13.75;9.85;;;20.60;99.90;;;;;;4871182;29;20044;-84
2023/09/19 06:28:14;;;;;;;17.02;10.02;;;20.70;99.90;;;;;;4855411;29;20575;-84
2023/09/19 06:30:42;;;;;;;16.20;9.82;;;20.50;99.90;;;;;;4864813;29;20060;-83
2023/09/19 06:33:12;;;;;;;15.30;10.40;;;20.40;99.90;;;;;;4856465;29;20052;-85
2023/09/19 06:35:44;;;;;;;17.63;9.48;;;20.70;99.90;;;;;;4873466;29;20093;-85
2023/09/19 06:38:12;;;;;;;18.65;10.27;;;21.00;99.90;;;;;;4874766;29;21071;-84
2023/09/19 06:40:42;;;;;;;16.42;9.75;;;21.10;99.90;;;;;;4874108;29;20053;-84
2023/09/19 06:43:11;;;;;;;19.58;10.00;;;21.20;99.90;;;;;;4856394;29;20037;-85
2023/09/19 06:45:38;;;;;;;18.65;10.85;;;21.30;99.90;;;;;;4873498;29;20048;-84
2023/09/19 06:48:06;;;;;;;17.48;10.63;;;21.30;99.90;;;;;;4872082;29;20101;-84
2023/09/19 06:50:34;;;;;;;23.90;10.27;;;21.30;99.90;;;;;;4874547;29;20308;-85
2023/09/19 06:53:02;;;;;;;22.48;10.75;;;21.30;99.90;;;;;;4874900;29;20549;-85
2023/09/19 06:55:30;;;;;;;16.67;9.95;;;21.50;99.90;;;;;;4871651;29;20041;-83
2023/09/19 06:57:59;;;;;;;14.90;9.82;;;21.60;99.90;;;;;;4853510;29;20045;-83
2023/09/19 07:00:28;;;;;;;18.80;10.52;;;21.80;99.90;;;;;;4873134;29;20124;-85
2023/09/19 07:03:03;;;;;;;18.15;10.18;;;21.80;99.90;;;;;;4872454;29;20041;-83
2023/09/19 07:05:33;;;;;;;19.80;9.93;;;21.80;99.90;;;;;;4866255;29;20056;-85
2023/09/19 07:08:01;;;;;;;20.58;13.35;;;21.90;99.90;;;;;;4856707;29;20042;-86
2023/09/19 07:10:30;;;;;;;15.70;12.13;;;22.20;99.90;;;;;;4874533;29;20098;-84
2023/09/19 07:13:03;;;;;;;19.27;10.75;;;22.40;99.90;;;;;;4864696;29;20042;-85
2023/09/19 07:15:35;;;;;;;16.08;9.88;;;22.30;99.90;;;;;;4864906;29;20041;-82
2023/09/19 07:18:08;;;;;;;19.83;10.57;;;22.40;99.90;;;;;;4873111;29;20048;-85
2023/09/19 07:20:36;;;;;;;16.35;10.32;;;22.30;99.90;;;;;;4856696;29;20324;-84
2023/09/19 07:23:04;;;;;;;14.02;9.38;;;22.30;99.90;;;;;;4868293;29;20579;-86
2023/09/19 07:25:32;;;;;;;15.90;10.30;;;22.50;99.90;;;;;;4866203;29;20051;-85
2023/09/19 07:28:00;;;;;;;14.55;9.50;;;22.70;99.90;;;;;;4856266;29;20049;-84
2023/09/19 07:30:28;;;;;;;17.67;9.65;;;22.80;99.90;;;;;;4855371;29;20122;-85
2023/09/19 07:32:57;;;;;;;15.90;9.50;;;22.90;99.90;;;;;;4871357;29;20050;-85
2023/09/19 07:43:40;;;;;;;17.35;9.18;;;23.20;99.90;;;;;;4872827;29;20039;-84
2023/09/19 08:09:23;;;;;;;11.30;8.00;;;24.10;99.90;;;;;;4756523;30;20059;-87
2023/09/19 08:27:19;;;;;;;17.42;7.90;;;24.50;99.90;;;;;;4736867;30;20412;-84
2023/09/19 08:31:50;;;;;;;12.82;8.30;;;24.70;99.70;;;;;;4778265;29;20100;-85
2023/09/19 08:36:04;;;;;;;14.88;9.32;;;25.00;99.40;;;;;;4778891;29;20592;-87
2023/09/19 08:45:07;;;;;;;10.48;7.40;;;25.20;99.00;;;;;;4763527;29;20082;-85
2023/09/19 08:48:03;;;;;;;10.88;7.00;;;25.10;98.40;;;;;;4789612;29;20059;-84
2023/09/19 08:50:33;;;;;;;11.32;7.47;;;25.30;98.30;;;;;;4798671;29;20092;-85
2023/09/19 08:53:06;;;;;;;13.73;8.15;;;25.50;98.30;;;;;;4815496;29;20576;-85
2023/09/19 08:55:34;;;;;;;11.57;7.47;;;25.30;98.10;;;;;;4820250;29;20046;-83
2023/09/19 08:58:04;;;;;;;14.48;8.20;;;24.80;98.80;;;;;;4837263;29;20054;-85
2023/09/19 09:00:32;;;;;;;13.60;7.72;;;25.10;98.80;;;;;;4833753;29;20046;-85
2023/09/19 09:03:02;;;;;;;14.82;8.45;;;25.20;98.40;;;;;;4818758;29;20450;-86
2023/09/19 09:05:32;;;;;;;11.18;7.28;;;25.10;98.40;;;;;;4818533;29;20237;-86
2023/09/19 09:08:05;;;;;;;12.38;7.03;;;25.30;98.20;;;;;;4812529;29;20061;-87
2023/09/19 09:10:35;;;;;;;14.63;7.20;;;24.80;98.40;;;;;;4800859;29;20392;-86
2023/09/19 09:13:06;;;;;;;15.75;9.75;;;24.80;98.70;;;;;;4801133;29;20050;-87
2023/09/19 09:15:35;;;;;;;;;;;25.30;98.10;;;;;;4835517;29;20047;-87
2023/09/19 09:18:04;;;;;;;13.80;8.07;;;25.40;97.80;;;;;;4828052;29;19921;-86
2023/09/19 09:20:35;;;;;;;15.32;9.07;;;25.50;97.50;;;;;;4832731;29;20050;-86
2023/09/19 09:23:06;;;;;;;15.98;8.38;;;25.60;97.50;;;;;;4831630;29;20395;-87
2023/09/19 09:26:07;;;;;;;15.93;8.98;;;26.00;96.50;;;;;;4820061;29;20039;-84
2023/09/19 09:28:36;;;;;;;14.43;8.02;;;26.30;96.00;;;;;;4824639;29;20466;-86
2023/09/19 09:31:08;;;;;;;11.27;7.20;;;26.50;95.40;;;;;;4845620;29;20047;-85
2023/09/19 09:33:36;;;;;;;13.05;7.35;;;26.60;94.90;;;;;;4834869;29;20204;-84
2023/09/19 09:36:05;;;;;;;10.13;7.07;;;26.80;94.70;;;;;;4844983;29;20074;-86
2023/09/19 09:38:48;;;;;;;11.27;6.85;;;26.90;94.30;;;;;;4839887;29;20563;-85
2023/09/19 09:41:27;;;;;;;11.98;7.60;;;27.20;93.70;;;;;;4828434;29;20064;-85
2023/09/19 09:43:54;;;;;;;11.63;7.20;;;27.40;93.50;;;;;;4821764;29;20039;-84
2023/09/19 09:51:59;;;;;;;11.68;7.15;;;28.00;92.10;;;;;;4839030;29;20386;-86
2023/09/19 09:54:37;;;;;;;11.75;7.20;;;27.90;91.50;;;;;;4833561;29;20050;-84
2023/09/19 09:57:16;;;;;;;11.73;7.30;;;28.00;91.30;;;;;;4820888;29;20137;-85
2023/09/19 09:59:57;;;;;;;12.65;6.93;;;28.20;91.10;;;;;;4842497;29;20137;-85
2023/09/19 10:02:32;;;;;;;11.10;6.88;;;28.10;90.90;;;;;;4852858;29;20053;-87
2023/09/19 10:08:08;;;;;;;13.50;7.22;;;28.60;90.20;;;;;;4855992;29;20093;-85
2023/09/19 10:13:15;;;;;;;12.70;7.22;;;28.20;90.50;;;;;;4855661;29;20464;-83
2023/09/19 10:15:48;;;;;;;12.38;7.90;;;28.20;89.80;;;;;;4859068;29;20102;-82
2023/09/19 10:18:24;;;;;;;11.13;7.38;;;28.60;90.00;;;;;;4873557;29;20038;-85
2023/09/19 10:20:56;;;;;;;17.50;9.60;;;28.30;90.00;;;;;;4871245;29;20525;-84
2023/09/19 10:23:29;;;;;;;13.15;8.25;;;28.10;89.80;;;;;;4856408;29;20041;-85
2023/09/19 10:25:59;;;;;;;12.45;7.90;;;28.10;89.60;;;;;;4856234;29;20046;-87
2023/09/19 10:28:30;;;;;;;15.23;8.45;;;28.10;89.60;;;;;;4871227;29;20029;-86
2023/09/19 10:31:02;;;;;;;12.27;6.93;;;28.00;89.40;;;;;;4857737;29;20436;-87
2023/09/19 10:33:35;;;;;;;11.05;6.80;;;27.70;89.90;;;;;;4869026;29;20049;-86
2023/09/19 10:36:05;;;;;;;12.52;7.05;;;27.70;89.50;;;;;;4858241;29;20094;-85
2023/09/19 10:38:40;;;;;;;12.40;8.05;;;27.60;90.00;;;;;;4860972;29;20059;-86
2023/09/19 10:41:16;;;;;;;11.13;7.22;;;27.60;89.50;;;;;;4858620;29;20049;-85
2023/09/19 10:43:48;;;;;;;10.70;7.50;;;27.50;90.10;;;;;;4869738;29;20045;-85
2023/09/19 10:46:16;;;;;;;11.70;7.18;;;27.80;89.70;;;;;;4872905;29;20051;-83
2023/09/19 10:48:44;;;;;;;10.30;6.97;;;27.90;88.80;;;;;;4857674;29;20120;-84
2023/09/19 10:51:19;;;;;;;;;;;28.00;87.70;;;;;;4874540;29;20057;-82
2023/09/19 10:53:53;;;;;;;12.35;6.90;;;27.90;86.60;;;;;;4875888;29;19953;-85
2023/09/19 10:56:32;;;;;;;10.48;7.47;;;27.70;87.50;;;;;;4855551;29;20596;-83
2023/09/19 10:59:10;;;;;;;11.20;7.10;;;28.10;86.80;;;;;;4874756;29;20469;-82
2023/09/19 11:01:56;;;;;;;12.85;7.32;;;28.10;86.50;;;;;;4858281;29;20049;-84
2023/09/19 11:04:36;;;;;;;10.70;6.78;;;28.70;85.70;;;;;;4859621;29;20435;-85
2023/09/19 11:07:11;;;;;;;12.30;7.65;;;29.20;84.90;;;;;;4872554;29;20093;-85
2023/09/19 11:09:58;;;;;;;10.85;6.97;;;29.70;83.50;;;;;;4868873;29;20064;-85
2023/09/19 11:12:30;;;;;;;16.25;8.02;;;29.90;81.30;;;;;;4867712;29;20090;-85
2023/09/19 11:14:59;;;;;;;12.93;7.20;;;30.00;80.90;;;;;;4857422;29;20102;-84
2023/09/19 11:17:37;;;;;;;27.88;11.50;;;29.70;80.60;;;;;;4874429;29;20431;-85
2023/09/19 11:22:54;;;;;;;22.02;9.32;;;29.80;78.70;;;;;;4858294;29;20080;-84
2023/09/19 11:25:30;;;;;;;15.82;11.88;;;29.90;79.50;;;;;;4869198;29;20058;-85
2023/09/19 11:28:16;;;;;;;14.80;8.65;;;30.30;78.00;;;;;;4855306;29;20093;-83
2023/09/19 11:30:49;;;;;;;11.13;7.07;;;30.20;77.30;;;;;;4869892;29;20046;-85
2023/09/19 11:33:37;;;;;;;13.00;7.50;;;29.70;77.60;;;;;;4855211;29;20412;-85
2023/09/19 11:36:14;;;;;;;11.93;7.53;;;29.90;77.00;;;;;;4856116;29;20042;-84
2023/09/19 11:38:49;;;;;;;17.92;8.10;;;30.80;75.30;;;;;;4873615;29;20045;-84
2023/09/19 11:41:29;;;;;;;11.35;7.05;;;30.80;73.60;;;;;;4866169;29;20078;-85
2023/09/19 11:44:00;;;;;;;10.75;6.65;;;30.60;73.40;;;;;;4849795;29;20044;-84
2023/09/19 11:46:29;;;;;;;13.60;6.85;;;30.30;73.50;;;;;;4870253;29;20398;-85
2023/09/19 11:49:15;;;;;;;14.68;7.57;;;30.30;73.40;;;;;;4856007;29;20052;-85
2023/09/19 11:51:44;;;;;;;10.60;6.65;;;30.30;74.10;;;;;;4856212;29;20060;-83
2023/09/19 11:54:18;;;;;;;8.70;6.45;;;30.40;72.40;;;;;;4863275;29;20375;-85
2023/09/19 11:56:50;;;;;;;11.40;6.25;;;30.60;71.50;;;;;;4857404;29;20041;-85
2023/09/19 11:59:24;;;;;;;9.32;6.65;;;30.80;70.10;;;;;;4854756;29;21631;-84
2023/09/19 12:02:12;;;;;;;9.48;6.15;;;31.20;70.10;;;;;;4862921;29;20133;-84
2023/09/19 12:04:43;;;;;;;9.52;6.28;;;31.40;69.80;;;;;;4869409;29;20054;-85
2023/09/19 12:07:16;;;;;;;9.00;6.55;;;31.60;69.30;;;;;;4869789;29;20049;-84
2023/09/19 12:09:49;;;;;;;12.10;6.10;;;31.50;69.60;;;;;;4858885;29;20052;-82
2023/09/19 12:12:26;;;;;;;9.15;6.00;;;31.40;69.40;;;;;;4857890;29;20034;-84
2023/09/19 12:14:58;;;;;;;16.02;7.22;;;31.20;70.70;;;;;;4863328;29;20053;-84
2023/09/19 12:22:25;;;;;;;9.50;5.85;;;31.60;69.00;;;;;;4856740;29;20044;-85
2023/09/19 12:25:56;;;;;;;13.05;6.57;;;31.10;69.60;;;;;;4856260;29;20191;-84
2023/09/19 12:28:34;;;;;;;9.13;6.22;;;31.20;69.70;;;;;;4853810;29;20725;-84
2023/09/19 12:31:08;;;;;;;8.63;6.07;;;31.80;69.20;;;;;;4855211;29;20390;-85
2023/09/19 12:33:39;;;;;;;9.95;6.22;;;32.30;67.90;;;;;;4868518;29;20432;-84
2023/09/19 12:36:29;;;;;;;9.70;5.67;;;32.20;67.90;;;;;;4860020;29;20060;-85
2023/09/19 12:38:59;;;;;;;8.93;5.70;;;32.30;67.30;;;;;;4868610;29;20160;-86
2023/09/19 12:41:27;;;;;;;15.50;6.68;;;32.70;67.10;;;;;;4865404;29;20042;-89
2023/09/19 12:43:55;;;;;;;11.00;5.80;;;32.80;66.80;;;;;;4850475;29;20509;-87
2023/09/19 12:46:28;;;;;;;11.20;5.80;;;32.80;66.90;;;;;;4872804;29;20128;-87
2023/09/19 12:49:20;;;;;;;8.07;5.85;;;32.80;66.80;;;;;;4874699;29;20045;-88
2023/09/19 12:52:07;;;;;;;8.02;5.75;;;32.90;66.30;;;;;;4857022;29;20049;-89
2023/09/19 12:54:39;;;;;;;10.25;6.60;;;32.70;66.30;;;;;;4870086;29;20034;-87
2023/09/19 12:57:07;;;;;;;10.75;5.82;;;33.10;66.10;;;;;;4872586;29;20061;-85
2023/09/19 12:59:36;;;;;;;9.23;5.97;;;33.70;65.50;;;;;;4872226;29;20068;-85
2023/09/19 13:02:07;;;;;;;8.73;5.85;;;34.00;65.40;;;;;;4869403;29;20061;-85
2023/09/19 13:04:40;;;;;;;11.32;5.75;;;34.10;65.00;;;;;;4861113;29;20049;-87
2023/09/19 13:07:30;;;;;;;9.13;5.82;;;34.00;64.80;;;;;;4859625;29;20038;-89
2023/09/19 13:10:05;;;;;;;11.05;6.03;;;34.10;64.70;;;;;;4870145;29;20098;-86
2023/09/19 13:12:38;;;;;;;8.82;4.97;;;34.70;63.50;;;;;;4870973;29;20128;-83
2023/09/19 13:15:25;;;;;;;10.07;6.20;;;34.40;64.30;;;;;;4864734;29;20370;-85
2023/09/19 13:18:01;;;;;;;8.57;5.28;;;35.90;62.70;;;;;;4869612;29;20042;-85
2023/09/19 13:20:29;;;;;;;11.30;6.28;;;37.00;59.90;;;;;;4868916;29;20376;-84
2023/09/19 13:23:10;;;;;;;7.75;5.60;;;37.30;57.90;;;;;;4866742;29;20049;-84
2023/09/19 13:25:40;;;;;;;9.73;6.28;;;37.60;56.90;;;;;;4872239;29;20060;-82
2023/09/19 13:28:07;;;;;;;9.75;6.20;;;38.60;56.30;;;;;;4871760;29;20113;-82
2023/09/19 13:30:42;;;;;;;10.85;5.65;;;38.40;56.10;;;;;;4853149;29;20046;-83
2023/09/19 13:33:11;;;;;;;10.40;5.57;;;38.00;55.30;;;;;;4854021;29;20044;-87
2023/09/19 13:35:41;;;;;;;13.15;5.43;;;38.00;55.30;;;;;;4852760;29;20101;-83
2023/09/19 13:38:12;;;;;;;11.10;5.82;;;38.00;55.10;;;;;;4872396;29;20044;-87
2023/09/19 13:40:57;;;;;;;7.32;5.03;;;38.40;54.30;;;;;;4865466;29;20042;-85
2023/09/19 13:43:24;;;;;;;9.23;5.97;;;39.60;53.50;;;;;;4854323;29;20033;-87
2023/09/19 13:45:58;;;;;;;13.00;5.85;;;40.80;52.40;;;;;;4855028;29;20038;-88
2023/09/19 13:48:25;;;;;;;14.00;5.80;;;41.40;51.50;;;;;;4854798;29;20033;-84
2023/09/19 13:50:55;;;;;;;11.23;5.55;;;41.30;50.60;;;;;;4871809;29;20509;-83
2023/09/19 13:53:23;;;;;;;11.85;5.30;;;41.00;50.50;;;;;;4866988;29;20363;-83
2023/09/19 13:55:51;;;;;;;17.05;5.65;;;40.60;51.30;;;;;;4872000;29;20140;-84
2023/09/19 13:58:18;;;;;;;9.30;5.25;;;40.00;51.20;;;;;;4853112;29;20359;-82
2023/09/19 14:00:45;;;;;;;9.35;5.20;;;38.70;51.50;;;;;;4871059;29;20053;-82
2023/09/19 14:03:15;;;;;;;11.13;5.93;;;35.20;55.70;;;;;;4854700;29;20049;-83
2023/09/19 14:05:43;;;;;;;14.68;5.95;;;34.30;58.00;;;;;;4852270;29;20049;-83
2023/09/19 14:08:12;;;;;;;13.27;5.78;;;34.20;58.00;;;;;;4868514;29;20090;-87
2023/09/19 14:10:40;;;;;;;9.63;5.05;;;35.80;56.20;;;;;;4872532;29;20770;-83
2023/09/19 14:13:07;;;;;;;9.00;5.38;;;35.80;56.40;;;;;;4855356;29;20040;-84